Latest Weather Observations for Jervois

IDD60801

Issued at 11:35 am CST Thursday 23 October 2014 (issued every 30 minutes, with the page automatically refreshed every 10 minutes)

About weather observations | Map of weather stations | Latest weather observations for NT | Other Formats
Station Details ID: 015602 Name: JERVOIS Lat: -22.95 Lon: 136.14 Height: 328.0 m
Data from the previous 72 hours. | See also: Recent months at Jervois
Date/Time
CST
Temp
°C
App
Temp
°C
Dew
Point
Rel
Hum
%
Delta-T
°C
Wind Press
QNH
hPa
Press
MSL
hPa
Rain
since 9 am
mm
Dir
 
Spd
km/h
Gust
km/h
Spd
kts
Gust
kts
23/11:30am 35.7 28.3 -7.1 6 19.2 NE 24 39 13 21 1017.7 - 0.0
23/11:00am 34.3 27.7 -7.3 6 18.4 NNE 20 33 11 18 1018.1 - 0.0
23/10:30am 34.0 27.1 -5.8 7 18.0 NNE 22 35 12 19 1018.6 - 0.0
23/10:00am 33.5 26.2 -6.5 7 17.8 NNE 24 32 13 17 1018.8 - 0.0
23/09:30am 32.4 24.7 -6.1 8 17.1 NNE 26 37 14 20 1019.0 - 0.0
23/09:00am 31.5 22.6 -6.9 8 16.7 NNE 32 39 17 21 1019.1 1017.5 0.0
23/08:30am 30.2 22.1 -6.5 9 15.9 NNE 28 37 15 20 1019.3 - 0.0
23/08:00am 28.9 21.4 -4.9 10 14.9 NE 26 35 14 19 1019.2 - 0.0
23/07:30am 27.5 21.2 -4.3 12 14.0 NNE 20 30 11 16 1018.8 - 0.0
23/07:00am 25.5 20.7 -2.8 15 12.6 NNE 13 19 7 10 1018.5 - 0.0
23/06:30am 22.2 17.9 -1.8 20 10.6 N 11 13 6 7 1018.2 - 0.0
23/06:00am 20.2 16.1 -0.1 25 9.1 N 11 13 6 7 1017.8 1016.3 0.0
23/05:30am 19.3 15.7 0.4 28 8.5 N 9 11 5 6 1017.5 - 0.0
23/05:00am 18.0 14.7 2.5 35 7.2 N 9 9 5 5 1017.4 - 0.0
23/04:30am 18.0 14.3 0.2 30 7.9 N 9 9 5 5 1017.0 - 0.0
23/04:00am 18.8 15.6 0.6 29 8.2 N 7 7 4 4 1016.7 - 0.0
23/03:30am 19.0 15.9 1.3 30 8.1 N 7 9 4 5 1016.6 - 0.0
23/03:00am 18.3 14.8 -1.5 26 8.5 N 7 9 4 5 1016.6 1015.0 0.0
23/02:30am 18.9 15.7 -0.7 26 8.6 N 6 9 3 5 1016.7 - 0.0
23/02:00am 19.4 16.1 -1.3 24 9.0 N 6 11 3 6 1016.9 - 0.0
23/01:30am 20.2 17.9 -2.0 22 9.6 CALM 0 4 0 2 1017.1 - 0.0
23/01:00am 21.3 18.0 -1.3 22 10.0 ENE 6 7 3 4 1017.3 - 0.0
23/12:30am 22.6 19.1 -1.3 20 10.7 ENE 7 11 4 6 1017.5 - 0.0
23/12:00am 23.6 19.9 0.0 21 10.9 E 9 11 5 6 1017.6 1016.1 0.0
 
Date/Time
CST
Temp
°C
App
Temp
°C
Dew
Point
Rel
Hum
%
Delta-T
°C
Wind Press
QNH
hPa
Press
MSL
hPa
Rain
since 9 am
mm
Dir
 
Spd
km/h
Gust
km/h
Spd
kts
Gust
kts
22/11:30pm 24.1 19.8 -1.3 18 11.5 E 11 13 6 7 1017.8 - 0.0
22/11:00pm 25.4 21.4 -2.1 16 12.4 E 9 13 5 7 1018.1 - 0.0
22/10:30pm 25.5 21.2 -1.4 17 12.3 E 11 13 6 7 1018.1 - 0.0
22/10:00pm 26.1 22.1 -2.2 15 12.8 E 9 13 5 7 1017.8 - 0.0
22/09:30pm 27.0 22.5 -3.1 13 13.5 E 11 13 6 7 1017.6 - 0.0
22/09:00pm 27.7 23.1 -3.7 12 14.0 E 11 13 6 7 1017.4 1015.9 0.0
22/08:30pm 27.1 23.3 -1.0 16 13.1 E 9 11 5 6 1017.0 - 0.0
22/08:00pm 28.9 25.5 -0.9 14 14.1 E 7 11 4 6 1016.6 - 0.0
22/07:30pm 29.8 25.4 -2.7 12 15.0 E 11 11 6 6 1016.3 - 0.0
22/07:00pm 30.9 26.4 -3.5 10 15.8 E 11 13 6 7 1016.1 - 0.0
22/06:30pm 33.1 27.5 -5.9 8 17.5 E 15 20 8 11 1015.8 - 0.0
22/06:00pm 34.4 28.8 -6.8 7 18.4 ESE 15 24 8 13 1015.5 1013.9 0.0
22/05:30pm 35.0 29.0 -7.1 6 18.8 E 17 28 9 15 1015.3 - 0.0
22/05:00pm 35.5 30.3 -5.7 7 18.9 E 13 22 7 12 1015.2 - 0.0
22/04:30pm 35.6 29.6 -6.7 6 19.1 ENE 17 24 9 13 1015.3 - 0.0
22/04:00pm 35.6 30.9 -5.4 7 18.9 E 11 20 6 11 1015.3 - 0.0
22/03:30pm 35.7 30.9 -5.6 7 19.0 ENE 11 26 6 14 1015.4 - 0.0
22/03:00pm 35.6 29.0 -6.7 6 19.1 E 20 50 11 27 1015.7 1014.1 0.0
22/02:30pm 35.2 30.5 -1.7 9 18.0 ESE 13 24 7 13 1015.9 - 0.0
22/02:00pm 35.2 30.3 -3.3 8 18.3 E 13 22 7 12 1016.3 - 0.0
22/01:30pm 36.1 29.6 -6.1 6 19.3 NE 20 30 11 16 1016.6 - 0.0
22/01:00pm 35.1 28.3 -4.8 7 18.5 E 22 30 12 16 1017.2 - 0.0
22/12:30pm 35.1 28.3 -4.9 7 18.5 ENE 22 56 12 30 1017.8 - 0.0
22/12:00pm 34.8 29.2 -2.5 9 17.9 ENE 17 39 9 21 1018.3 1016.7 0.0
22/11:30am 34.2 28.1 -2.3 9 17.5 NE 20 33 11 18 1018.7 - 0.0
22/11:00am 33.8 27.4 -2.0 10 17.2 NE 22 39 12 21 1019.2 - 0.0
22/10:30am 34.1 27.4 -1.1 10 17.2 NNE 24 35 13 19 1019.7 - 0.0
22/10:00am 33.2 25.3 -1.3 11 16.7 NE 30 41 16 22 1019.8 - 0.0
22/09:30am 32.2 24.3 -1.8 11 16.2 NE 30 39 16 21 1020.1 - 0.0
22/09:00am 30.7 22.7 -2.7 11 15.5 NE 30 39 16 21 1020.0 1018.5 0.0
22/08:30am 30.2 22.9 -3.1 11 15.3 NNE 26 35 14 19 1019.8 - 0.0
22/08:00am 28.9 21.2 -3.3 12 14.6 NNE 28 37 15 20 1019.5 - 0.0
22/07:30am 26.9 20.3 -3.4 13 13.5 NNE 22 32 12 17 1019.2 - 0.0
22/07:00am 24.8 19.2 -2.7 16 12.2 NNE 17 24 9 13 1018.7 - 0.0
22/06:30am 22.0 17.2 -2.3 19 10.6 NNE 13 19 7 10 1018.2 - 0.0
22/06:00am 19.4 14.8 -1.3 24 9.0 N 13 15 7 8 1017.7 1016.2 0.0
22/05:30am 19.3 14.7 -1.1 25 8.9 N 13 13 7 7 1017.3 - 0.0
22/05:00am 19.2 15.6 0.6 28 8.4 N 9 11 5 6 1017.0 - 0.0
22/04:30am 19.4 15.6 -0.5 26 8.8 NNE 9 11 5 6 1016.8 - 0.0
22/04:00am 20.7 16.5 -0.6 24 9.5 N 11 15 6 8 1016.6 - 0.0
22/03:30am 20.6 16.5 -0.4 24 9.4 NNE 11 13 6 7 1016.5 - 0.0
22/03:00am 20.3 17.1 0.9 27 8.9 NNE 7 9 4 5 1016.5 1014.9 0.0
22/02:30am 20.5 16.7 -1.0 23 9.5 NNE 9 11 5 6 1016.4 - 0.0
22/02:00am 20.0 17.0 2.0 30 8.4 N 7 9 4 5 1016.6 - 0.0
22/01:30am 20.6 16.8 -0.8 24 9.5 NNE 9 11 5 6 1016.9 - 0.0
22/01:00am 21.3 18.0 0.3 24 9.6 N 7 11 4 6 1017.3 - 0.0
22/12:30am 22.1 18.5 0.4 23 10.0 NNE 9 11 5 6 1017.7 - 0.0
22/12:00am 22.8 19.8 1.7 25 10.0 NNE 7 11 4 6 1018.1 1016.5 0.0
 
Date/Time
CST
Temp
°C
App
Temp
°C
Dew
Point
Rel
Hum
%
Delta-T
°C
Wind Press
QNH
hPa
Press
MSL
hPa
Rain
since 9 am
mm
Dir
 
Spd
km/h
Gust
km/h
Spd
kts
Gust
kts
21/11:30pm 23.5 19.7 -1.0 19 11.1 NNE 9 11 5 6 1018.3 - 0.0
21/11:00pm 23.6 20.8 3.2 26 10.0 N 7 9 4 5 1018.5 - 0.0
21/10:30pm 24.1 21.3 3.2 25 10.3 NE 7 9 4 5 1018.8 - 0.0
21/10:00pm 25.4 22.2 -0.4 18 12.0 ENE 6 11 3 6 1018.9 - 0.0
21/09:30pm 25.9 22.4 1.1 20 11.9 NE 9 13 5 7 1018.7 - 0.0
21/09:00pm 26.2 23.1 1.4 20 12.0 E 7 9 4 5 1018.4 1016.8 0.0
21/08:30pm 27.4 23.8 0.9 18 12.8 ENE 9 11 5 6 1018.0 - 0.0
21/08:00pm 28.0 24.1 -1.4 14 13.7 E 9 11 5 6 1017.5 - 0.0
21/07:30pm 29.5 25.5 -2.1 12 14.7 E 9 11 5 6 1017.2 - 0.0
21/07:00pm 30.8 26.3 -3.3 11 15.7 E 11 13 6 7 1016.8 - 0.0
21/06:30pm 32.9 27.9 -4.2 9 17.1 E 13 15 7 8 1016.4 - 0.0
21/06:00pm 34.7 30.9 -3.8 8 18.1 E 7 13 4 7 1016.2 1014.6 0.0
21/05:30pm 34.9 29.3 -6.8 6 18.7 ENE 15 22 8 12 1015.9 - 0.0
21/05:00pm 35.2 30.4 -5.6 7 18.7 SE 11 20 6 11 1015.7 - 0.0
21/04:30pm 35.9 31.3 -4.3 7 18.9 E 11 17 6 9 1015.7 - 0.0
21/04:00pm 35.8 30.9 -6.6 6 19.2 ENE 11 24 6 13 1015.6 - 0.0
21/03:30pm 36.2 32.3 -4.4 7 19.1 NNW 7 19 4 10 1015.7 - 0.0
21/03:00pm 35.5 28.1 -7.8 6 19.2 ENE 24 32 13 17 1015.9 1014.3 0.0
21/02:30pm 35.9 29.6 -6.2 6 19.2 SE 19 24 10 13 1016.1 - 0.0
21/02:00pm 35.9 30.9 -4.3 7 18.9 E 13 28 7 15 1016.7 - 0.0
21/01:30pm 36.0 29.6 -5.2 7 19.1 NNE 20 35 11 19 1017.1 - 0.0
21/01:00pm 35.6 30.6 -4.2 8 18.7 N 13 28 7 15 1017.6 - 0.0
21/12:30pm 34.9 29.9 -4.4 8 18.3 ENE 13 32 7 17 1018.4 - 0.0
21/12:00pm 34.7 28.9 -1.8 9 17.7 NNE 19 35 10 19 1019.0 1017.4 0.0
21/11:30am 33.9 28.9 -1.2 10 17.1 NNE 15 28 8 15 1019.3 - 0.0
21/11:00am 34.0 27.4 -3.0 9 17.5 N 22 33 12 18 1019.9 - 0.0
21/10:30am 33.1 26.5 -3.2 9 17.0 NE 22 35 12 19 1020.1 - 0.0
21/10:00am 33.0 25.6 -3.5 9 17.0 NNE 26 35 14 19 1020.4 - 0.0
21/09:30am 32.8 25.0 -4.2 9 17.0 NNE 28 39 15 21 1020.5 - 0.0
21/09:00am 31.6 23.8 -3.6 10 16.2 NNE 28 37 15 20 1020.5 1019.0 0.0
21/08:30am 30.9 23.1 -3.6 10 15.8 NNE 28 37 15 20 1020.5 - 0.0
21/08:00am 28.8 20.7 -3.1 12 14.5 NNE 30 37 16 20 1020.3 - 0.0
21/07:30am 27.7 21.2 -2.3 14 13.7 NNE 22 32 12 17 1019.8 - 0.0
21/07:00am 25.6 20.5 -2.1 16 12.5 NNE 15 22 8 12 1019.7 - 0.0
21/06:30am 21.8 17.4 -2.3 20 10.5 N 11 15 6 8 1019.4 - 0.0
21/06:00am 19.7 15.9 -0.7 25 9.0 N 9 11 5 6 1018.9 1017.3 0.0
21/05:30am 20.0 15.0 -4.3 19 10.0 N 13 15 7 8 1018.5 - 0.0
21/05:00am 17.1 13.4 -2.7 25 8.2 N 7 9 4 5 1018.3 - 0.0
21/04:30am 16.0 11.6 -2.1 29 7.5 N 11 11 6 6 1018.0 - 0.0
21/04:00am 16.5 14.2 -2.7 26 7.9 CALM 0 0 0 0 1018.0 - 0.0
21/03:30am 16.5 14.0 -4.4 23 8.3 CALM 0 0 0 0 1017.8 - 0.0
21/03:00am 16.6 13.9 -5.6 21 8.6 CALM 0 0 0 0 1017.6 1016.1 0.0
21/02:30am 17.3 15.0 -2.3 26 8.2 CALM 0 0 0 0 1017.4 - 0.0
21/02:00am 17.4 15.2 -1.7 27 8.1 CALM 0 0 0 0 1017.7 - 0.0
21/01:30am 18.2 15.6 -4.8 20 9.2 CALM 0 0 0 0 1018.0 - 0.0
21/01:00am 18.9 16.8 -0.7 26 8.6 CALM 0 0 0 0 1018.3 - 0.0
21/12:30am 20.6 17.8 -2.9 20 10.0 NE 2 6 1 3 1018.5 - 0.0
21/12:00am 22.4 19.1 -0.2 22 10.3 E 7 7 4 4 1018.6 1017.0 0.0
 
Date/Time
CST
Temp
°C
App
Temp
°C
Dew
Point
Rel
Hum
%
Delta-T
°C
Wind Press
QNH
hPa
Press
MSL
hPa
Rain
since 9 am
mm
Dir
 
Spd
km/h
Gust
km/h
Spd
kts
Gust
kts
20/11:30pm 21.7 18.0 -3.0 19 10.6 NE 7 11 4 6 1018.8 - 0.0
20/11:00pm 22.8 19.4 -0.9 20 10.7 ENE 7 9 4 5 1018.9 - 0.0
20/10:30pm 23.0 19.5 -1.3 20 10.9 ENE 7 9 4 5 1018.9 - 0.0
20/10:00pm 24.5 20.5 -2.1 17 11.9 NE 9 11 5 6 1018.8 - 0.0
20/09:30pm 25.7 21.6 -2.8 15 12.7 E 9 11 5 6 1018.7 - 0.0
20/09:00pm 26.0 22.0 -2.5 15 12.8 E 9 11 5 6 1018.4 1016.8 0.0
20/08:30pm 26.8 22.2 -4.2 13 13.6 NE 11 13 6 7 1018.1 - 0.0
20/08:00pm 27.9 22.9 -4.7 11 14.3 E 13 15 7 8 1017.6 - 0.0
20/07:30pm 28.8 24.1 -4.6 11 14.8 E 11 13 6 7 1017.2 - 0.0
20/07:00pm 30.3 25.6 -4.9 10 15.7 E 11 15 6 8 1016.8 - 0.0
20/06:30pm 32.4 26.8 -6.0 8 17.1 E 15 20 8 11 1016.3 - 0.0
20/06:00pm 33.9 27.5 -6.8 7 18.1 ENE 19 26 10 14 1016.0 1014.4 0.0
20/05:30pm 34.1 27.4 -8.0 6 18.4 ENE 20 28 11 15 1015.7 - 0.0
20/05:00pm 35.0 28.5 -7.8 6 18.9 ENE 19 28 10 15 1015.5 - 0.0
20/04:30pm 35.5 29.2 -5.7 7 18.9 ESE 19 26 10 14 1015.5 - 0.0
20/04:00pm 35.3 29.1 -4.6 7 18.6 SE 19 32 10 17 1015.6 - 0.0
20/03:30pm 35.6 29.5 -7.4 6 19.2 ESE 17 35 9 19 1015.9 - 0.0
20/03:00pm 34.9 31.3 -2.1 9 17.9 S 7 24 4 13 1016.2 1014.5 0.0
20/02:30pm 35.2 29.0 -4.4 8 18.5 SE 19 30 10 16 1016.6 - 0.0
20/02:00pm 35.2 29.6 -2.8 9 18.2 E 17 30 9 16 1017.1 - 0.0
20/01:30pm 34.0 29.0 -1.4 10 17.2 ESE 15 30 8 16 1017.6 - 0.0
20/01:00pm 35.1 30.0 -2.1 9 18.0 ENE 15 22 8 12 1018.2 - 0.0
20/12:30pm 34.9 28.4 -2.2 9 17.9 ENE 22 33 12 18 1018.8 - 0.0
20/12:00pm 34.0 28.2 0.0 11 16.9 E 20 35 11 19 1019.4 1017.8 0.0

Other Formats:

Comma delimited format used in spreadsheet applications
http://www.bom.gov.au/fwo/IDD60801/IDD60801.94327.axf

JavaScript Object Notation format (JSON) in row-major order
http://www.bom.gov.au/fwo/IDD60801/IDD60801.94327.json